createdAt,value
2022-11-23T00:02:20.003Z,99751.59
2022-11-23T00:04:51.564Z,99755.03
2022-11-23T00:07:23.494Z,99759.47
2022-11-23T00:09:54.989Z,99763.53
2022-11-23T00:12:26.501Z,99758.31
2022-11-23T00:14:57.997Z,99760.28
2022-11-23T00:17:30.018Z,99764.53
2022-11-23T00:20:01.524Z,99761.56
2022-11-23T00:22:33.384Z,99761.56
2022-11-23T00:25:04.969Z,99754.34
2022-11-23T00:27:36.860Z,99753.53
2022-11-23T00:30:08.335Z,99751.06
2022-11-23T00:32:40.339Z,99749.44
2022-11-23T00:35:11.834Z,99762.56
2022-11-23T00:37:43.861Z,99761.91
2022-11-23T00:40:15.341Z,99773.22
2022-11-23T00:42:47.209Z,99777.66
2022-11-23T00:45:18.722Z,99773.84
2022-11-23T00:47:50.778Z,99785.50
2022-11-23T00:50:22.277Z,99773.69
2022-11-23T00:52:54.235Z,99779.75
2022-11-23T00:55:25.720Z,99786.63
2022-11-23T00:57:57.593Z,99782.69
2022-11-23T01:00:29.073Z,99783.50
2022-11-23T01:03:00.870Z,99786.75
2022-11-23T01:05:32.365Z,99786.75
2022-11-23T01:08:04.206Z,99781.50
2022-11-23T01:10:35.725Z,99774.91
2022-11-23T01:13:07.556Z,99769.38
2022-11-23T01:15:39.068Z,99777.88
2022-11-23T01:18:10.891Z,99779.53
2022-11-23T01:20:42.377Z,99773.75
2022-11-23T01:23:14.222Z,99778.00
2022-11-23T01:25:45.699Z,99778.63
2022-11-23T01:28:17.586Z,99783.69
2022-11-23T01:30:49.074Z,99778.91
2022-11-23T01:33:20.914Z,99780.34
2022-11-23T01:35:52.413Z,99783.63
2022-11-23T01:38:24.210Z,99779.47
2022-11-23T01:40:55.724Z,99780.91
2022-11-23T01:43:27.709Z,99787.16
2022-11-23T01:45:59.355Z,99790.22
2022-11-23T01:48:31.155Z,99791.69
2022-11-23T01:51:02.649Z,99792.34
2022-11-23T01:53:34.500Z,99792.16
2022-11-23T01:56:06.026Z,99794.63
2022-11-23T01:58:37.836Z,99791.44
2022-11-23T02:01:09.430Z,99797.50
2022-11-23T02:03:41.343Z,99793.72
2022-11-23T02:06:12.863Z,99796.16
2022-11-23T02:08:44.919Z,99795.63
2022-11-23T02:11:16.454Z,99796.06
2022-11-23T02:13:48.264Z,99793.44
2022-11-23T02:16:19.783Z,99790.47
2022-11-23T02:18:51.626Z,99789.28
2022-11-23T02:21:23.120Z,99793.25
2022-11-23T02:23:54.628Z,99795.69
2022-11-23T02:26:26.167Z,99786.66
2022-11-23T02:28:58.678Z,99786.09
2022-11-23T02:31:30.219Z,99790.72
2022-11-23T02:34:02.039Z,99787.75
2022-11-23T02:36:33.533Z,99792.16
2022-11-23T02:39:05.395Z,99786.28
2022-11-23T02:41:36.983Z,99787.28
2022-11-23T02:44:08.932Z,99781.22
2022-11-23T02:46:40.448Z,99782.84
2022-11-23T02:49:12.468Z,99774.97
2022-11-23T02:51:43.968Z,99780.13
2022-11-23T02:54:15.800Z,99784.38
2022-11-23T02:56:47.320Z,99789.38
2022-11-23T02:59:19.165Z,99787.09
2022-11-23T03:01:50.648Z,99795.53
2022-11-23T03:04:27.572Z,99795.25
2022-11-23T03:06:59.667Z,99798.22
2022-11-23T03:09:32.784Z,99798.59
2022-11-23T03:12:04.561Z,99802.72
2022-11-23T03:14:39.210Z,99799.00
2022-11-23T03:17:10.722Z,99797.38
2022-11-23T03:19:42.599Z,99815.44
2022-11-23T03:22:14.105Z,99803.31
2022-11-23T03:24:45.968Z,99807.41
2022-11-23T03:27:17.481Z,99823.31
2022-11-23T03:29:49.301Z,99811.84
2022-11-23T03:32:20.861Z,99819.06
2022-11-23T03:34:52.689Z,99805.50
2022-11-23T03:37:25.369Z,99802.59
2022-11-23T03:39:57.391Z,99796.88
2022-11-23T03:42:28.897Z,99798.88
2022-11-23T03:45:00.733Z,99800.03
2022-11-23T03:47:32.546Z,99796.09
2022-11-23T03:50:04.040Z,99806.41
2022-11-23T03:52:35.886Z,99797.91
2022-11-23T03:55:07.345Z,99801.88
2022-11-23T03:57:39.161Z,99798.44
2022-11-23T04:00:10.681Z,99618.31
2022-11-23T04:02:42.470Z,99806.31
2022-11-23T04:05:13.969Z,99810.56
2022-11-23T04:07:45.860Z,99805.13
2022-11-23T04:10:17.422Z,99806.13
2022-11-23T04:12:49.298Z,99799.25
2022-11-23T04:15:20.803Z,99800.25
2022-11-23T04:17:52.631Z,99809.09
2022-11-23T04:20:24.108Z,99805.84
2022-11-23T04:22:55.754Z,99808.28
2022-11-23T04:25:27.313Z,99796.19
2022-11-23T04:27:59.133Z,99802.22
2022-11-23T04:30:30.634Z,99805.03
2022-11-23T04:33:02.445Z,99803.22
2022-11-23T04:35:34.323Z,99804.22
2022-11-23T04:38:06.146Z,99806.19
2022-11-23T04:40:37.658Z,99811.44
2022-11-23T04:43:09.677Z,99808.19
2022-11-23T04:45:41.249Z,99809.00
2022-11-23T04:48:13.097Z,99811.97
2022-11-23T04:50:46.794Z,99815.22
2022-11-23T04:53:18.945Z,99811.44
2022-11-23T04:55:50.460Z,99811.38
2022-11-23T04:58:22.034Z,99813.19
2022-11-23T05:00:53.646Z,99815.28
2022-11-23T05:03:25.229Z,99816.28
2022-11-23T05:05:56.739Z,99817.56
2022-11-23T05:08:28.718Z,99817.03
2022-11-23T05:11:00.247Z,99817.88
2022-11-23T05:13:32.188Z,99818.50
2022-11-23T05:16:03.668Z,99811.28
2022-11-23T05:18:35.529Z,99807.38
2022-11-23T05:21:07.031Z,99811.72
2022-11-23T05:23:38.965Z,99813.00
2022-11-23T05:26:10.476Z,99803.97
2022-11-23T05:28:42.454Z,99808.41
2022-11-23T05:31:13.979Z,99814.38
2022-11-23T05:33:45.807Z,99810.31
2022-11-23T05:36:17.297Z,99805.88
2022-11-23T05:38:49.289Z,99806.16
2022-11-23T05:41:20.770Z,99806.88
2022-11-23T05:43:52.693Z,99804.88
2022-11-23T05:46:24.213Z,99805.34
2022-11-23T05:48:56.071Z,99798.81
2022-11-23T05:51:27.631Z,99800.63
2022-11-23T05:53:59.449Z,99801.25
2022-11-23T05:56:33.677Z,99805.50
2022-11-23T05:59:08.357Z,99811.41
2022-11-23T06:01:39.913Z,99800.63
2022-11-23T06:04:11.998Z,99807.22
2022-11-23T06:06:43.513Z,99798.72
2022-11-23T06:09:15.381Z,99799.44
2022-11-23T06:11:48.246Z,99796.53
2022-11-23T06:14:20.061Z,99806.56
2022-11-23T06:16:51.688Z,99804.28
2022-11-23T06:19:23.519Z,99807.25
2022-11-23T06:21:55.118Z,99807.94
2022-11-23T06:24:27.178Z,99822.69
2022-11-23T06:26:58.681Z,99822.03
2022-11-23T06:29:31.824Z,99822.84
2022-11-23T06:32:03.483Z,99824.84
2022-11-23T06:34:35.302Z,99823.56
2022-11-23T06:37:06.793Z,99822.28
2022-11-23T06:39:38.608Z,99824.25
2022-11-23T06:42:37.176Z,99828.69
2022-11-23T06:45:01.915Z,99825.91
2022-11-23T06:47:33.423Z,99829.50
2022-11-23T06:50:05.419Z,99824.63
2022-11-23T06:52:36.927Z,99828.69
2022-11-23T06:55:08.866Z,99835.91
2022-11-23T06:57:40.371Z,99829.03
2022-11-23T07:00:12.437Z,99823.81
2022-11-23T07:02:43.991Z,99827.59
2022-11-23T07:05:15.817Z,99829.03
2022-11-23T07:07:47.405Z,99838.72
2022-11-23T07:10:19.261Z,99833.47
2022-11-23T07:12:50.802Z,99840.34
2022-11-23T07:15:22.622Z,99850.00
2022-11-23T07:17:54.128Z,99851.81
2022-11-23T07:20:26.004Z,99850.66
2022-11-23T07:22:57.517Z,99858.97
2022-11-23T07:25:29.448Z,99856.19
2022-11-23T07:28:00.964Z,99869.41
2022-11-23T07:30:32.479Z,99872.50
2022-11-23T07:33:04.037Z,99861.47
2022-11-23T07:35:36.353Z,99872.47
2022-11-23T07:38:09.044Z,99863.72
2022-11-23T07:40:41.065Z,99865.00
2022-11-23T07:43:12.602Z,99869.19
2022-11-23T07:45:44.901Z,99873.53
2022-11-23T07:48:16.590Z,99877.06
2022-11-23T07:50:48.523Z,99876.16
2022-11-23T07:53:20.084Z,99885.69
2022-11-23T07:55:51.910Z,99888.16
2022-11-23T07:58:23.431Z,99883.72
2022-11-23T08:00:55.367Z,99888.16
2022-11-23T08:03:28.549Z,99887.91
2022-11-23T08:06:00.794Z,99889.53
2022-11-23T08:08:32.292Z,99891.69
2022-11-23T08:11:04.292Z,99894.31
2022-11-23T08:13:36.069Z,99899.59
2022-11-23T08:16:07.868Z,99893.16
2022-11-23T08:18:39.352Z,99900.88
2022-11-23T08:21:11.158Z,99896.25
2022-11-23T08:23:43.114Z,99903.28
2022-11-23T08:26:14.608Z,99899.78
2022-11-23T08:28:46.640Z,99897.03
2022-11-23T08:31:18.154Z,99895.78
2022-11-23T08:33:49.969Z,99890.84
2022-11-23T08:36:21.453Z,99899.69
2022-11-23T08:38:54.617Z,99895.69
2022-11-23T08:41:26.135Z,99901.78
2022-11-23T08:43:57.887Z,99898.81
2022-11-23T08:46:29.391Z,99898.81
2022-11-23T08:49:01.401Z,99898.63
2022-11-23T08:51:32.993Z,99895.16
2022-11-23T08:54:04.841Z,99895.16
2022-11-23T08:56:36.360Z,99904.81
2022-11-23T08:59:08.209Z,99905.13
2022-11-23T09:01:39.740Z,99910.03
2022-11-23T09:04:14.053Z,99909.34
2022-11-23T09:06:49.345Z,99905.66
2022-11-23T09:09:21.308Z,99903.94
2022-11-23T09:11:53.900Z,99893.94
2022-11-23T09:14:27.782Z,99897.88
2022-11-23T09:16:59.280Z,99899.13
2022-11-23T09:19:31.097Z,99899.50
2022-11-23T09:22:02.614Z,99904.63
2022-11-23T09:24:34.530Z,99899.50
2022-11-23T09:27:06.251Z,99901.47
2022-11-23T09:29:38.176Z,99894.22
2022-11-23T09:32:09.676Z,99887.13
2022-11-23T09:34:41.568Z,99884.00
2022-11-23T09:37:13.062Z,99882.84
2022-11-23T09:39:44.923Z,99882.66
2022-11-23T09:42:16.408Z,99887.94
2022-11-23T09:44:52.658Z,99884.50
2022-11-23T09:47:24.159Z,99881.44
2022-11-23T09:49:55.999Z,99884.06
2022-11-23T09:52:27.532Z,99887.88
2022-11-23T09:54:59.409Z,99881.91
2022-11-23T09:57:30.942Z,99880.69
2022-11-23T10:00:02.773Z,99884.91
2022-11-23T10:02:34.273Z,99881.22
2022-11-23T10:05:06.290Z,99881.97
2022-11-23T10:07:37.802Z,99880.91
2022-11-23T10:10:09.361Z,99883.13
2022-11-23T10:12:40.926Z,99875.13
2022-11-23T10:15:14.346Z,99875.44
2022-11-23T10:17:48.396Z,99869.47
2022-11-23T10:20:20.225Z,99875.75
2022-11-23T10:22:51.729Z,99871.78
2022-11-23T10:25:23.307Z,99868.44
2022-11-23T10:27:54.820Z,99875.44
2022-11-23T10:30:26.641Z,99874.63
2022-11-23T10:32:58.196Z,99872.72
2022-11-23T10:35:30.095Z,99871.06
2022-11-23T10:38:01.582Z,99870.88
2022-11-23T10:40:33.475Z,99872.00
2022-11-23T10:43:04.982Z,99869.59
2022-11-23T10:45:36.783Z,99863.78
2022-11-23T10:48:08.338Z,99869.19
2022-11-23T10:50:45.253Z,99859.41
2022-11-23T10:53:16.771Z,99855.09
2022-11-23T10:55:48.302Z,99855.41
2022-11-23T10:58:19.831Z,99859.06
2022-11-23T11:00:51.589Z,99860.09
2022-11-23T11:03:23.098Z,99862.72
2022-11-23T11:06:11.225Z,99858.41
2022-11-23T11:08:43.181Z,99847.47
2022-11-23T11:11:14.698Z,99854.56
2022-11-23T11:13:46.203Z,99848.97
2022-11-23T11:16:17.978Z,99850.81
2022-11-23T11:18:49.533Z,99852.41
2022-11-23T11:21:21.050Z,99846.91
2022-11-23T11:23:52.589Z,99841.38
2022-11-23T11:26:24.490Z,99841.66
2022-11-23T11:28:56.061Z,99840.63
2022-11-23T11:31:28.057Z,99841.66
2022-11-23T11:33:59.662Z,99849.56
2022-11-23T11:36:31.541Z,99842.66
2022-11-23T11:39:23.098Z,99849.78
2022-11-23T11:41:54.602Z,99840.25
2022-11-23T11:44:26.122Z,99840.94
2022-11-23T11:46:58.195Z,99840.84
2022-11-23T11:49:29.729Z,99848.06
2022-11-23T11:52:01.622Z,99849.75
2022-11-23T11:54:33.623Z,99844.28
2022-11-23T11:57:05.820Z,99842.91
2022-11-23T11:59:43.009Z,99844.63
2022-11-23T12:02:14.624Z,99845.28
2022-11-23T12:04:46.687Z,99846.47
2022-11-23T12:07:18.265Z,99846.75
2022-11-23T12:09:50.113Z,99852.78
2022-11-23T12:12:26.627Z,99850.44
2022-11-23T12:15:01.499Z,99849.41
2022-11-23T12:17:33.677Z,99844.50
2022-11-23T12:20:05.770Z,99845.22
2022-11-23T12:22:37.333Z,99843.72
2022-11-23T12:25:11.797Z,99845.34
2022-11-23T12:30:35.110Z,99836.84
2022-11-23T12:33:06.615Z,99835.56
2022-11-23T12:35:38.177Z,99842.66
2022-11-23T12:38:10.275Z,99836.53
2022-11-23T12:40:42.583Z,99843.88
2022-11-23T12:43:15.124Z,99837.84
2022-11-23T12:45:47.192Z,99844.06
2022-11-23T12:48:19.154Z,99849.50
2022-11-23T12:50:51.176Z,99842.56
2022-11-23T12:53:24.223Z,99852.16
2022-11-23T12:56:05.246Z,99847.78
2022-11-23T12:58:37.210Z,99851.19
2022-11-23T13:01:09.868Z,99846.69
2022-11-23T13:03:41.830Z,99839.13
2022-11-23T13:06:14.406Z,99838.22
2022-11-23T13:08:46.408Z,99837.19
2022-11-23T13:11:18.950Z,99835.69
2022-11-23T13:13:51.134Z,99837.81
2022-11-23T13:16:29.913Z,99837.88
2022-11-23T13:19:04.878Z,99831.78
2022-11-23T13:21:37.647Z,99831.94
2022-11-23T13:24:09.496Z,99836.09
2022-11-23T13:26:41.786Z,99838.56
2022-11-23T13:29:14.666Z,99848.16
2022-11-23T13:31:47.154Z,99841.63
2022-11-23T13:34:19.011Z,99840.03
2022-11-23T13:37:12.066Z,99834.88
2022-11-23T13:39:43.513Z,99836.84
2022-11-23T13:42:15.683Z,99830.47
2022-11-23T13:44:47.609Z,99841.06
2022-11-23T13:47:19.939Z,99840.41
2022-11-23T13:49:51.860Z,99839.59
2022-11-23T13:52:24.327Z,99849.53
2022-11-23T13:54:56.526Z,99839.34
2022-11-23T13:57:35.135Z,99845.84
2022-11-23T14:00:08.318Z,99844.50
2022-11-23T14:02:42.804Z,99852.31
2022-11-23T14:05:15.001Z,99848.63
2022-11-23T14:07:47.549Z,99853.81
2022-11-23T14:10:19.571Z,99860.88
2022-11-23T14:12:51.506Z,99850.56
2022-11-23T14:15:23.367Z,99849.53
2022-11-23T14:17:55.594Z,99841.59
2022-11-23T14:20:28.184Z,99847.56
2022-11-23T14:23:00.690Z,99844.66
2022-11-23T14:25:32.623Z,99848.56
2022-11-23T14:28:07.042Z,99853.13
2022-11-23T14:30:38.991Z,99851.09
2022-11-23T14:33:11.150Z,99849.69
2022-11-23T14:35:43.021Z,99851.56
2022-11-23T14:38:15.277Z,99853.50
2022-11-23T14:40:47.135Z,99866.63
2022-11-23T14:43:22.142Z,99862.41
2022-11-23T14:45:54.054Z,99865.97
2022-11-23T14:48:26.399Z,99861.94
2022-11-23T14:50:58.675Z,99872.53
2022-11-23T14:53:30.529Z,99874.00
2022-11-23T14:56:02.481Z,99870.00
2022-11-23T14:58:34.441Z,99871.81
2022-11-23T15:01:06.463Z,99878.97
2022-11-23T15:03:53.372Z,99879.59
2022-11-23T15:06:25.281Z,99875.94
2022-11-23T15:08:56.774Z,99874.31
2022-11-23T15:11:28.427Z,99870.25
2022-11-23T15:14:03.297Z,99874.75
2022-11-23T15:16:34.882Z,99872.31
2022-11-23T15:19:06.421Z,99878.00
2022-11-23T15:21:38.281Z,99874.72
2022-11-23T15:24:09.774Z,99884.47
2022-11-23T15:26:49.320Z,99886.50
2022-11-23T15:29:21.107Z,99889.34
2022-11-23T15:32:14.386Z,99899.69
2022-11-23T15:34:44.411Z,99906.78
2022-11-23T15:37:15.929Z,99903.09
2022-11-23T15:39:47.454Z,99910.19
2022-11-23T15:42:19.151Z,99901.28
2022-11-23T15:44:56.516Z,99905.53
2022-11-23T15:47:28.462Z,99904.09
2022-11-23T15:50:00.157Z,99906.94
2022-11-23T15:52:31.838Z,99899.22
2022-11-23T15:55:08.583Z,99897.38
2022-11-23T15:57:41.153Z,99901.44
2022-11-23T16:00:12.726Z,99903.03
2022-11-23T16:02:44.266Z,99909.91
2022-11-23T16:05:15.824Z,99907.66
2022-11-23T16:07:47.558Z,99909.06
2022-11-23T16:10:19.086Z,99907.00
2022-11-23T16:12:50.635Z,99905.59
2022-11-23T16:15:22.575Z,99909.44
2022-11-23T16:17:54.074Z,99903.72
2022-11-23T16:20:25.600Z,99910.63
2022-11-23T16:22:57.635Z,99917.13
2022-11-23T16:25:29.175Z,99916.31
2022-11-23T16:28:00.754Z,99922.34
2022-11-23T16:30:32.273Z,99915.03
2022-11-23T16:33:03.894Z,99928.41
2022-11-23T16:35:35.496Z,99924.16
2022-11-23T16:38:07.333Z,99927.34
2022-11-23T16:40:38.836Z,99919.78
2022-11-23T16:43:10.623Z,99918.56
2022-11-23T16:45:42.153Z,99925.03
2022-11-23T16:48:13.713Z,99926.41
2022-11-23T16:50:45.213Z,99921.16
2022-11-23T16:53:16.877Z,99928.25
2022-11-23T16:55:48.420Z,99931.25
2022-11-23T16:58:19.931Z,99933.09
2022-11-23T17:00:51.512Z,99934.91
2022-11-23T17:03:24.589Z,99926.16
2022-11-23T17:05:56.123Z,99929.16
2022-11-23T17:08:27.646Z,99921.00
2022-11-23T17:10:59.130Z,99924.84
2022-11-23T17:13:30.949Z,99921.97
2022-11-23T17:16:02.469Z,99926.41
2022-11-23T17:18:34.478Z,99919.91
2022-11-23T17:21:06.717Z,99921.47
2022-11-23T17:23:42.549Z,99920.03
2022-11-23T17:26:14.095Z,99920.44
2022-11-23T17:28:46.070Z,99923.25
2022-11-23T17:31:17.629Z,99928.09
2022-11-23T17:33:49.666Z,99931.91
2022-11-23T17:36:21.161Z,99924.63
2022-11-23T17:38:53.085Z,99933.75
2022-11-23T17:41:24.670Z,99933.91
2022-11-23T17:43:58.436Z,99931.03
2022-11-23T17:46:31.530Z,99933.03
2022-11-23T17:49:03.491Z,99933.41
2022-11-23T17:51:35.306Z,99934.22
2022-11-23T17:54:06.802Z,99944.56
2022-11-23T17:56:38.697Z,99943.13
2022-11-23T17:59:10.210Z,99943.13
2022-11-23T18:01:42.128Z,99949.59
2022-11-23T18:04:13.684Z,99955.66
2022-11-23T18:06:45.672Z,99951.97
2022-11-23T18:09:17.221Z,99953.78
2022-11-23T18:11:49.022Z,99950.72
2022-11-23T18:14:21.930Z,99959.81
2022-11-23T18:16:53.830Z,99959.19
2022-11-23T18:19:25.383Z,99965.00
2022-11-23T18:21:57.363Z,99966.19
2022-11-23T18:24:28.931Z,99961.28
2022-11-23T18:27:00.978Z,99963.28
2022-11-23T18:29:32.918Z,99968.91
2022-11-23T18:32:06.922Z,99965.03
2022-11-23T18:34:38.461Z,99968.66
2022-11-23T18:37:10.676Z,99972.28
2022-11-23T18:39:42.209Z,99973.47
2022-11-23T18:42:14.586Z,99977.75
2022-11-23T18:44:46.107Z,99970.41
2022-11-23T18:47:17.630Z,99972.59
2022-11-23T18:49:49.539Z,99979.22
2022-11-23T18:52:21.468Z,99970.72
2022-11-23T18:54:52.974Z,99974.25
2022-11-23T18:57:24.784Z,99975.88
2022-11-23T18:59:58.360Z,99982.78
2022-11-23T19:02:30.774Z,99979.53
2022-11-23T19:05:02.266Z,99982.16
2022-11-23T19:07:33.823Z,99979.69
2022-11-23T19:10:05.344Z,99979.03
2022-11-23T19:12:37.140Z,99698.22
2022-11-23T19:15:09.731Z,99992.03
2022-11-23T19:17:41.583Z,99988.13
2022-11-23T19:20:13.171Z,99983.22
2022-11-23T19:22:45.049Z,99990.31
2022-11-23T19:25:16.554Z,99993.47
2022-11-23T19:27:49.467Z,99991.84
2022-11-23T19:30:20.964Z,99993.66
2022-11-23T19:32:52.780Z,100005.38
2022-11-23T19:35:24.285Z,100008.34
2022-11-23T19:37:55.798Z,100002.66
2022-11-23T19:40:27.311Z,100008.28
2022-11-23T19:42:59.233Z,100012.06
2022-11-23T19:45:30.737Z,100013.25
2022-11-23T19:48:02.508Z,100013.25
2022-11-23T19:50:34.051Z,100010.19
2022-11-23T19:53:12.492Z,100013.63
2022-11-23T19:55:44.658Z,100018.06
2022-11-23T19:58:16.944Z,100023.66
2022-11-23T20:00:48.438Z,100011.50
2022-11-23T20:03:20.119Z,100016.94
2022-11-23T20:05:51.609Z,100013.88
2022-11-23T20:08:23.446Z,100006.97
2022-11-23T20:10:54.944Z,100011.41
2022-11-23T20:13:26.893Z,100009.97
2022-11-23T20:15:58.409Z,100019.03
2022-11-23T20:18:30.237Z,100015.59
2022-11-23T20:21:02.068Z,100016.56
2022-11-23T20:23:34.086Z,100014.94
2022-11-23T20:26:05.589Z,100020.19
2022-11-23T20:28:37.500Z,100039.59
2022-11-23T20:31:09.031Z,100042.41
2022-11-23T20:33:40.937Z,100042.59
2022-11-23T20:36:12.426Z,100046.19
2022-11-23T20:38:44.273Z,100044.56
2022-11-23T20:41:15.928Z,100042.31
2022-11-23T20:43:47.911Z,100042.31
2022-11-23T20:46:45.723Z,100040.03
2022-11-23T20:49:10.969Z,100036.75
2022-11-23T20:51:42.473Z,100039.75
2022-11-23T20:54:14.297Z,100039.41
2022-11-23T20:56:45.835Z,100043.38
2022-11-23T20:59:17.770Z,100044.19
2022-11-23T21:01:49.406Z,100038.56
2022-11-23T21:04:20.974Z,100043.00
2022-11-23T21:06:52.574Z,100046.47
2022-11-23T21:09:24.576Z,100039.75
2022-11-23T21:12:14.706Z,100038.31
2022-11-23T21:14:46.266Z,100042.06
2022-11-23T21:17:18.400Z,100056.03
2022-11-23T21:19:49.992Z,100065.06
2022-11-23T21:22:21.892Z,100071.31
2022-11-23T21:24:53.587Z,100072.66
2022-11-23T21:27:28.230Z,100072.84
2022-11-23T21:30:01.057Z,100079.25
2022-11-23T21:32:33.125Z,100084.06
2022-11-23T21:35:06.036Z,100079.31
2022-11-23T21:37:37.610Z,100079.69
2022-11-23T21:40:09.344Z,100081.50
2022-11-23T21:42:41.193Z,100078.41
2022-11-23T21:45:13.145Z,100082.38
2022-11-23T21:47:46.909Z,100081.72
2022-11-23T21:50:18.516Z,100089.13
2022-11-23T21:52:50.404Z,100089.47
2022-11-23T21:55:21.933Z,100097.34
2022-11-23T21:57:53.882Z,100093.25
2022-11-23T22:00:31.056Z,100103.44
2022-11-23T22:03:03.273Z,100107.06
2022-11-23T22:05:34.820Z,100106.44
2022-11-23T22:08:28.419Z,100115.47
2022-11-23T22:10:58.475Z,100117.44
2022-11-23T22:13:35.436Z,100117.28
2022-11-23T22:16:08.461Z,100116.78
2022-11-23T22:18:40.434Z,100123.03
2022-11-23T22:21:12.012Z,100126.66
2022-11-23T22:23:43.950Z,100133.88
2022-11-23T22:26:15.510Z,100128.97
2022-11-23T22:28:50.478Z,100136.84
2022-11-23T22:31:22.070Z,100141.94
2022-11-23T22:33:53.986Z,100136.84
2022-11-23T22:36:25.542Z,100144.72
2022-11-23T22:39:01.238Z,100147.53
2022-11-23T22:41:39.168Z,100148.34
2022-11-23T22:44:11.555Z,100145.56
2022-11-23T22:46:43.102Z,100149.84
2022-11-23T22:49:15.009Z,100143.44
2022-11-23T22:51:46.549Z,100145.75
2022-11-23T22:54:18.559Z,100146.06
2022-11-23T22:56:50.073Z,100141.63
2022-11-23T22:59:21.894Z,100149.34
2022-11-23T23:01:53.409Z,100147.56
2022-11-23T23:04:25.396Z,100153.63
2022-11-23T23:06:57.689Z,100150.31
2022-11-23T23:09:29.646Z,100146.88
2022-11-23T23:12:01.214Z,100149.50
2022-11-23T23:14:33.366Z,100150.66
2022-11-23T23:17:05.085Z,100151.66
2022-11-23T23:19:37.219Z,100151.66
2022-11-23T23:22:08.783Z,100152.81
2022-11-23T23:24:40.720Z,100152.81
2022-11-23T23:27:12.313Z,100149.53
2022-11-23T23:29:43.873Z,100157.25
2022-11-23T23:32:15.425Z,100153.28
2022-11-23T23:34:47.271Z,100150.50
2022-11-23T23:37:19.146Z,100157.53
2022-11-23T23:39:51.097Z,100156.56
2022-11-23T23:42:22.607Z,100163.28
2022-11-23T23:44:54.456Z,100161.50
2022-11-23T23:47:25.941Z,100162.97
2022-11-23T23:49:57.757Z,100172.94
2022-11-23T23:52:29.260Z,100168.22
2022-11-23T23:55:01.225Z,100168.84
2022-11-23T23:57:32.714Z,100164.56
